x

9441102 - Westport, Wa (wptw1) Weather Station

10:36 - Fri 30th Sep 2016 All times are PDT. -7 hours from GMT.

  • Wind
    3mph, 5mph gusts
  • Sea Temp 54°f
  • Air Temp 50°f
  • Sea Pressure 1016.7mb
  • 9441102 - Westport, Wa
  • 9441102 - Westport, Wa

More Historic Weather Station data

Upgrade to MSW Pro to gain access to the past 30 days of data for over 8000 Wavebouys and Weather Stations around the globe.

Join Pro

Comparision Forecast

View Surf forecast
   
ven. 09/30 10:36 3 5 mph 1016.7mb 54f 50f
10:30 2 5 mph 1016.8mb 54f 50f
10:24 6 8 mph 1016.8mb 54f 50f
10:18 2 5 mph 1016.8mb 54f 49f
10:12 5 7 mph 1016.8mb 54f 49f
10:06 3 6 mph 1016.8mb 54f 49f
10:00 7 9 mph 1016.8mb 54f 49f
9:36 6 7 mph 1016.9mb 54f 49f
9:30 5 7 mph 1016.8mb 54f 49f
9:24 3 5 mph 1016.9mb 54f 49f
9:18 3 7 mph 1016.9mb 54f 49f
9:12 3 7 mph 1016.8mb 54f 49f
9:06 2 6 mph 1016.8mb 54f 50f
9:00 2 7 mph 1016.8mb 54f 49f
8:36 6 9 mph 1016.9mb 54f 49f
8:30 8 9 mph 1016.9mb 54f 49f
8:24 6 7 mph 1017mb 54f 49f
8:18 6 8 mph 1017mb 54f 49f
8:12 7 8 mph 1017mb 54f 49f
8:06 6 7 mph 1017mb 54f 49f
8:00 7 8 mph 1017.1mb 54f 49f
7:36  -  2 mph 1017.2mb 55f 49f
7:30 2 3 mph 1017.2mb 55f 49f
7:24 2 5 mph 1017.2mb 55f 49f
7:18 2 5 mph 1017.2mb 55f 49f
7:12 2 5 mph 1017.3mb 54f 49f
7:06 3 5 mph 1017.3mb 54f 49f
7:00 3 5 mph 1017.2mb 54f 49f
6:36 3 6 mph 1017.1mb 54f 49f
6:30 5 6 mph 1017.2mb 54f 49f
6:24 3 5 mph 1017.1mb 54f 49f
6:18 5 6 mph 1017.1mb 54f 49f
6:12 3 5 mph 1017.2mb 54f 49f
6:06 2 3 mph 1017.2mb 54f 49f
6:00 1 3 mph 1017.3mb 54f 49f
5:36 1
mph
1017.3mb 54f 49f
5:30 1
mph
1017.3mb 54f 49f
5:24  -  1 mph 1017.3mb 54f 49f
5:18  -  1 mph 1017.4mb 54f 50f
5:12 1 2 mph 1017.4mb 54f 50f
5:06 2 3 mph 1017.4mb 54f 50f
5:00 3 5 mph 1017.5mb 54f 50f
4:36 2
mph
1017.6mb 54f 50f
4:30 2 3 mph 1017.5mb 54f 50f
4:24 2 3 mph 1017.6mb 54f 50f
4:18 2 3 mph 1017.6mb 54f 50f
4:12 2 3 mph 1017.7mb 54f 50f
4:06 2 3 mph 1017.8mb 54f 50f
4:00 3
mph
1017.8mb 54f 50f
3:36 2
mph
1017.9mb 53f 50f
3:30 2 3 mph 1018mb 53f 50f
3:24 3
mph
1018mb 53f 50f
3:18 2 3 mph 1018mb 53f 50f
3:12 3
mph
1018.1mb 52f 50f
3:06 2 3 mph 1018.1mb 52f 50f
3:00 2
mph
1018.1mb 51f 50f
2:36 5
mph
1018.2mb 51f 50f
2:30 5
mph
1018.1mb 52f 50f
2:24 5 7 mph 1018.1mb 53f 50f
2:18 3 6 mph 1018mb 53f 50f
2:12 5 6 mph 1018mb 52f 50f
2:06 5 6 mph 1018.1mb 51f 50f
2:00 6 7 mph 1018.1mb 51f 50f
1:36 8 10 mph 1018mb 51f 51f
1:30 7 8 mph 1018mb 51f 51f
1:24 8 10 mph 1018mb 51f 51f
1:18 8 10 mph 1018mb 51f 52f
1:12 6 8 mph 1017.9mb 51f 52f
1:06 6
mph
1017.9mb 51f 52f
1:00 5
mph
1017.9mb 51f 52f
12:36 5 6 mph 1018.1mb 52f 53f
12:30 5 6 mph 1018.1mb 53f 53f
12:24 6
mph
1018.1mb 53f 53f
12:18 5 6 mph 1018.2mb 53f 53f
12:12 6 7 mph 1018.2mb 53f 53f
12:06 6 7 mph 1018.2mb 53f 53f
12:00 6 7 mph 1018.1mb 54f 53f
jeu. 09/29 11:36 6
mph
1018.2mb 55f 53f
11:30 6
mph
1018.2mb 55f 53f
11:24 5 6 mph 1018.2mb 55f 53f
11:18 3 5 mph 1018.2mb 55f 53f
11:12 3 6 mph 1018.3mb 55f 53f
11:06 5 6 mph 1018.4mb 56f 53f
11:00 5 6 mph 1018.4mb 56f 53f
10:36 5 6 mph 1018.5mb 56f 53f
10:30 5 6 mph 1018.5mb 56f 53f
10:24 3 5 mph 1018.5mb 56f 53f
10:18 5 6 mph 1018.5mb 56f 53f
10:12 6
mph
1018.5mb 56f 53f
10:06 6
mph
1018.5mb 56f 53f
10:00 5
mph
1018.5mb 56f 53f
9:36 5 6 mph 1018.4mb 56f 54f
9:30 6 7 mph 1018.4mb 55f 54f
9:24 6 7 mph 1018.4mb 56f 54f
9:18 6 7 mph 1018.4mb 56f 54f
9:12 6 7 mph 1018.5mb 55f 54f
9:06 6 7 mph 1018.5mb 55f 54f
9:00 5 7 mph 1018.5mb 55f 54f
8:36 8 9 mph 1018.7mb 55f 55f
8:30 8 9 mph 1018.7mb 56f 55f
8:24 9 11 mph 1018.7mb 56f 55f
8:18 9 10 mph 1018.8mb 56f 55f
8:12 8 9 mph 1018.7mb 56f 55f
8:06 8 9 mph 1018.7mb 56f 55f
8:00 9
mph
1018.6mb 56f 55f
7:36 7 8 mph 1018.8mb 56f 55f
7:30 8 9 mph 1018.7mb 56f 55f
7:24 8 9 mph 1018.6mb 56f 55f
7:18 7 9 mph 1018.7mb 56f 55f
7:12 8 10 mph 1018.7mb 56f 55f
7:06 7 8 mph 1018.8mb 56f 55f
7:00 7 8 mph 1018.8mb 56f 55f
6:36 8 9 mph 1018.8mb 56f 55f
6:30 8 10 mph 1018.8mb 56f 56f
6:24 8 10 mph 1018.8mb 56f 56f
6:18 9 11 mph 1018.7mb 56f 56f
6:12 10 11 mph 1018.7mb 56f 56f
6:06 10 13 mph 1018.7mb 56f 56f
6:00 11 13 mph 1018.8mb 56f 56f
5:36 10 13 mph 1018.9mb 55f 57f
5:30 9 11 mph 1018.9mb 55f 56f
5:24 11 13 mph 1018.9mb 55f 56f
5:18 10 11 mph 1018.9mb 55f 56f
5:12 10 13 mph 1018.9mb 55f 57f
5:06 11 13 mph 1019mb 55f 57f
5:00 10 13 mph 1018.9mb 55f 58f
4:36 14 16 mph 1018.9mb 56f 56f
4:30 14 16 mph 1018.9mb 56f 57f
4:24 14 16 mph 1018.9mb 56f 57f
4:18 14 16 mph 1019mb 56f 58f
4:12 14 16 mph 1018.9mb 56f 58f
4:06 14 15 mph 1018.9mb 56f 57f
4:00 14 15 mph 1018.9mb 56f 57f
3:36 15 17 mph 1018.9mb 55f 56f
3:30 15 18 mph 1018.8mb 55f 57f
3:24 17 18 mph 1018.7mb 55f 57f
3:18 16 18 mph 1018.7mb 54f 57f
3:12 16 20 mph 1018.7mb 54f 56f
3:06 16 20 mph 1018.8mb 54f 56f
3:00 17 18 mph 1018.9mb 54f 56f
2:36 16 18 mph 1018.9mb 52f 57f
2:30 17 18 mph 1018.9mb 53f 57f
2:24 16 20 mph 1019mb 52f 57f
2:18 17 20 mph 1019mb 52f 57f
2:12 16 18 mph 1018.9mb 51f 57f
2:06 16 17 mph 1018.9mb 51f 57f
2:00 15 17 mph 1018.9mb 51f 57f
1:36 15 17 mph 1019.1mb 50f 57f
1:30 16 18 mph 1019.1mb 50f 57f
1:24 16 18 mph 1019.1mb 50f 57f
1:18 17 20 mph 1019.1mb 50f 57f
1:12 17 22 mph 1018.9mb 50f 57f
1:06 17 21 mph 1019mb 50f 57f
1:00 17 20 mph 1019mb 50f 57f
12:36 14 16 mph 1019mb 51f 58f
12:30 14 17 mph 1019.1mb 51f 58f
12:24 14 15 mph 1019.1mb 51f 58f
12:18 14 16 mph 1019.1mb 51f 57f
12:12 14 15 mph 1019.1mb 52f 57f
12:06 13 15 mph 1019.2mb 52f 58f
12:00 13 14 mph 1019.2mb 53f 58f
11:36 7 10 mph 1019.4mb 55f 58f
11:30 8 10 mph 1019.4mb 56f 58f
11:24 6 8 mph 1019.4mb 56f 58f
11:18 9 13 mph 1019.3mb 56f 58f
11:12 6 8 mph 1019.3mb 56f 59f
11:06 3 6 mph 1019.4mb 56f 60f
11:00 2 5 mph 1019.4mb 56f 62f
10:54 3 6 mph 1019.4mb 56f 60f
10:48 5 6 mph 1019.3mb 56f 59f
10:36 3 7 mph 1019.2mb 56f 58f
10:30 3 8 mph 1019.2mb 56f 57f
10:24 3 7 mph 1019.2mb 56f 56f
10:18 5 7 mph 1019.2mb 56f 57f
10:12 5 7 mph 1019.2mb 56f 57f
10:06 5 7 mph 1019.2mb 56f 56f
10:00 5 6 mph 1019.1mb 56f 56f
9:54 5 8 mph 1019.1mb 56f 56f
9:48 5 7 mph 1019.1mb 56f 55f
9:36 5 8 mph 1019.1mb 56f 54f
9:30 6 7 mph 1019mb 56f 53f
9:24 6 9 mph 1019mb 56f 54f
9:18 6 9 mph 1019mb 56f 55f
9:12 7 10 mph 1019mb 56f 55f
9:06 8 11 mph 1019mb 56f 54f
9:00 10 15 mph 1019mb 56f 54f
8:54 15 18 mph 1018.9mb 56f 54f
8:48 16 20 mph 1018.8mb 56f 54f
8:36 18 21 mph 1018.7mb 56f 54f
8:30 17 22 mph 1018.6mb 56f 54f
8:24 15 18 mph 1018.5mb 56f 54f
8:18 16 17 mph 1018.6mb 57f 54f
8:12 15 17 mph 1018.5mb 57f 54f
8:06 16 18 mph 1018.5mb 57f 54f
8:00 16 18 mph 1018.4mb 57f 54f
7:54 16 18 mph 1018.4mb 57f 53f
7:48 15 18 mph 1018.5mb 57f 53f
7:36 17 20 mph 1018.4mb 57f 53f
7:30 16 18 mph 1018.4mb 57f 53f
7:24 16 18 mph 1018.3mb 57f 53f
7:18 17 21 mph 1018.2mb 57f 53f
7:12 18 21 mph 1018.1mb 58f 53f
7:06 18 21 mph 1018.1mb 58f 53f
7:00 18 23 mph 1018.1mb 58f 53f
6:54 17 20 mph 1018mb 57f 53f
6:48 18 21 mph 1018mb 57f 53f
6:36 17 20 mph 1017.9mb 57f 53f
6:30 17 22 mph 1018mb 57f 53f
6:24 17 21 mph 1017.9mb 57f 53f
6:18 20 22 mph 1018mb 57f 53f
6:12 17 22 mph 1017.9mb 57f 53f
6:06 17 18 mph 1018mb 57f 53f
6:00 16 20 mph 1017.9mb 57f 53f
5:54 17 21 mph 1017.9mb 57f 53f
5:48 18 21 mph 1017.9mb 57f 53f
5:36 20 22 mph 1017.9mb 57f 53f
5:30 18 22 mph 1017.9mb 57f 53f
5:24 18 21 mph 1017.9mb 57f 53f
5:18 17 22 mph 1017.9mb 57f 53f
5:12 17 22 mph 1017.9mb 57f 53f
5:06 17 20 mph 1017.9mb 57f 53f
5:00 17 21 mph 1017.9mb 57f 53f
4:54 17 21 mph 1017.9mb 57f 53f
4:48 17 21 mph 1017.8mb 57f 53f
4:36 17 22 mph 1017.7mb 57f 53f
4:30 18 22 mph 1017.8mb 56f 53f
4:24 20 22 mph 1017.8mb 56f 53f
4:18 17 20 mph 1017.9mb 56f 53f
4:12 18 22 mph 1017.8mb 56f 53f
4:06 18 22 mph 1017.9mb 56f 53f
4:00 18 22 mph 1017.9mb 56f 53f
3:54 17 22 mph 1017.9mb 56f 53f
3:48 17 20 mph 1017.9mb 56f 53f
3:36 18 22 mph 1017.8mb 56f 53f
3:30 18 22 mph 1017.7mb 56f 53f
3:24 18 24 mph 1017.7mb 56f 53f
3:18 18 23 mph 1017.7mb 56f 53f
3:12 22 24 mph 1017.7mb 56f 53f
3:06 18 22 mph 1017.7mb 56f 53f
3:00 18 24 mph 1017.7mb 56f 53f
2:54 18 23 mph 1017.7mb 56f 53f
2:48 21 23 mph 1017.6mb 56f 53f
2:36 18 23 mph 1017.7mb 55f 53f
2:30 17 22 mph 1017.7mb 55f 53f
2:24 18 22 mph 1017.6mb 55f 53f
2:18 17 23 mph 1017.7mb 55f 53f
2:12 18 21 mph 1017.7mb 55f 53f
2:06 17 21 mph 1017.7mb 55f 53f
2:00 17 21 mph 1017.7mb 55f 53f
1:36 17 25 mph 1017.7mb 54f 53f
1:30 20 24 mph 1017.7mb 54f 53f
1:24 20 22 mph 1017.7mb 54f 53f
1:18 18 22 mph 1017.7mb 54f 53f
1:12 20 24 mph 1017.7mb 54f 53f
1:06 20 22 mph 1017.7mb 54f 53f
1:00 20 23 mph 1017.7mb 53f 53f
12:54 21 24 mph 1017.7mb 53f 53f
12:48 20 25 mph 1017.7mb 53f 54f
12:36 23 25 mph 1017.8mb 54f 54f
12:30 18 24 mph 1017.7mb 54f 54f
12:24 20 24 mph 1017.7mb 54f 54f
12:18 20 23 mph 1017.6mb 54f 54f
12:12 22 25 mph 1017.7mb 54f 54f
12:06 20 23 mph 1017.6mb 54f 54f
12:00 18 24 mph 1017.7mb 54f 54f
mer. 09/28 11:54 20 24 mph 1017.7mb 54f 54f
11:48 21 26 mph 1017.6mb 54f 54f
11:36 22 25 mph 1017.7mb 55f 54f
11:30 22 24 mph 1017.7mb 55f 54f
11:24 24 31 mph 1017.8mb 55f 54f
11:18 24 28 mph 1017.8mb 55f 54f
11:12 24 29 mph 1017.9mb 56f 54f
11:06 25 30 mph 1017.9mb 57f 55f
11:00 25 30 mph 1017.9mb 58f 54f
10:54 25 30 mph 1017.9mb 58f 54f
10:48 25 30 mph 1017.8mb 58f 55f
10:36 25 29 mph 1017.7mb 58f 55f
10:30 24 29 mph 1017.6mb 58f 55f
10:24 22 26 mph 1017.6mb 58f 55f
10:18 23 29 mph 1017.6mb 58f 55f
10:12 24 28 mph 1017.7mb 58f 55f
10:06 23 28 mph 1017.7mb 58f 55f
10:00 22 25 mph 1017.7mb 58f 55f
9:54 22 26 mph 1017.7mb 58f 55f
9:48 21 25 mph 1017.7mb 58f 55f
9:36 18 21 mph 1017.8mb 58f 55f
9:30 17 23 mph 1017.8mb 58f 55f
9:24 17 22 mph 1017.8mb 58f 55f
9:18 16 20 mph 1017.8mb 58f 55f
9:12 18 22 mph 1017.8mb 58f 55f
9:06 18 21 mph 1017.9mb 58f 55f
9:00 16 20 mph 1017.9mb 58f 55f
8:36 16 20 mph 1017.9mb 58f 55f
8:30 16 18 mph 1017.9mb 58f 55f
8:24 14 16 mph 1017.8mb 58f 55f
8:18 15 17 mph 1017.8mb 58f 55f
8:12 16 18 mph 1017.8mb 58f 55f
8:06 15 17 mph 1017.8mb 58f 55f
8:00 14 17 mph 1017.8mb 58f 55f
7:54 14 16 mph 1017.8mb 58f 55f
7:48 11 15 mph 1017.7mb 58f 55f
7:36 13 16 mph 1017.7mb 58f 55f
7:30 13 15 mph 1017.7mb 58f 55f
7:24 13 15 mph 1017.7mb 58f 55f
7:18 14 16 mph 1017.7mb 58f 55f
7:12 14 15 mph 1017.7mb 58f 55f
7:06 13 14 mph 1017.7mb 58f 55f
7:00 14 15 mph 1017.7mb 58f 55f
6:54 14 16 mph 1017.8mb 58f 56f
6:48 15 17 mph 1017.7mb 58f 56f
6:36 16 18 mph 1017.7mb 58f 56f
6:30 16 20 mph 1017.7mb 58f 56f
6:24 18 21 mph 1017.7mb 58f 56f
6:18 18 21 mph 1017.8mb 58f 56f
6:12 18 21 mph 1017.8mb 58f 56f
6:06 17 20 mph 1017.8mb 58f 56f
6:00 18 20 mph 1017.8mb 58f 56f
5:54 18 21 mph 1017.9mb 58f 56f
5:48 17 20 mph 1017.9mb 58f 56f
5:36 18 21 mph 1018mb 58f 56f
5:30 18 20 mph 1018mb 58f 56f
5:24 18 22 mph 1017.9mb 58f 56f
5:18 18 21 mph 1018mb 58f 56f
5:12 21 23 mph 1017.9mb 58f 56f
5:06 22 23 mph 1018mb 58f 57f
5:00 21 23 mph 1018mb 57f 57f
4:54 21 24 mph 1018mb 57f 57f
4:48 22 24 mph 1017.9mb 57f 57f
4:36 18 24 mph 1018mb 58f 57f
4:30 21 23 mph 1018.1mb 58f 57f
4:24 21 22 mph 1018.1mb 58f 57f
4:18 21 23 mph 1018.1mb 57f 57f
4:12 20 22 mph 1018.2mb 56f 57f
4:06 20 22 mph 1018.2mb 56f 57f
4:00 18 21 mph 1018.2mb 56f 57f
3:54 18 21 mph 1018.2mb 56f 57f
3:48 17 21 mph 1018.2mb 56f 58f
3:36 17 18 mph 1018.3mb 57f 57f
3:30 16 18 mph 1018.3mb 58f 57f
3:24 15 17 mph 1018.3mb 58f 58f
3:18 15 17 mph 1018.4mb 58f 58f
3:12 15 17 mph 1018.4mb 58f 58f
3:06 16 17 mph 1018.5mb 57f 58f
3:00 15 16 mph - - 58f
2:54 15 16 mph 1018.5mb 57f 58f
2:48 14 16 mph 1018.5mb 57f 58f
2:36 15 16 mph 1018.6mb 57f 58f
2:30 15 16 mph 1018.6mb 56f 58f
2:24 14 15 mph 1018.6mb 56f 58f
2:18 13 15 mph 1018.6mb 55f 58f
2:12 13 14 mph 1018.6mb 54f 58f
2:06 13 14 mph 1018.7mb 54f 58f
2:00 13 15 mph 1018.7mb 54f 58f
1:54 13 15 mph 1018.8mb 54f 58f
1:48 13 14 mph 1018.8mb 54f 58f
1:36 14
mph
1018.9mb 51f 58f
1:30 13
mph
1019mb 51f 58f
1:24 13 14 mph 1019.1mb 51f 59f
1:18 11 13 mph 1019.1mb 51f 58f
1:12 13
mph
1019.1mb 51f 58f
1:06 11 14 mph 1019.1mb 51f 58f
1:00 14 15 mph 1019.1mb 51f 58f
12:54 15
mph
1019.1mb 51f 58f
12:48 14 15 mph 1019.1mb 51f 58f
12:36 13
mph
1019.2mb 51f 58f
12:30 9
mph
1019.2mb 51f 60f
12:24 7 8 mph 1019.2mb 51f 61f
12:18 7
mph
1019.2mb 51f 61f
12:12 7 8 mph 1019.2mb 51f 61f
12:06 6 8 mph 1019.2mb 51f 61f
12:00 5 7 mph 1019.2mb 52f 62f
11:54 3 7 mph 1019.2mb 52f 61f
11:48 6 7 mph 1019.3mb 52f 60f
11:36 6 7 mph 1019.3mb 53f 59f
11:30 6 7 mph 1019.4mb 53f 59f
11:24 5 8 mph 1019.4mb 54f 59f
11:18 5 8 mph 1019.4mb 55f 59f
11:12 5 8 mph 1019.5mb 55f 58f
11:06 7 8 mph 1019.5mb 55f 57f
11:00 7 8 mph 1019.6mb 55f 57f
10:54 5 8 mph 1019.6mb 56f 57f
10:48 6 9 mph 1019.6mb 57f 56f
10:36 7 10 mph 1019.5mb 58f 55f
10:30 7 9 mph 1019.6mb 58f 56f
10:24 9 10 mph 1019.5mb 58f 55f
10:18 8 10 mph 1019.5mb 58f 55f
10:12 8 10 mph 1019.5mb 58f 55f
10:06 7 10 mph 1019.5mb 58f 55f
10:00 6 10 mph 1019.6mb 58f 55f
9:54 8 9 mph 1019.6mb 58f 54f
9:48 7 9 mph 1019.6mb 58f 54f
9:36 3 9 mph 1019.5mb 58f 54f
9:30 8 9 mph 1019.6mb 58f 53f
9:24 7 10 mph 1019.6mb 58f 53f
9:18 9 10 mph 1019.6mb 58f 53f
9:12 9 10 mph 1019.7mb 58f 53f
9:06 8 9 mph 1019.6mb 58f 53f
9:00 7 8 mph 1019.6mb 58f 53f
8:54 7 9 mph 1019.6mb 58f 53f
8:48 6 8 mph 1019.7mb 58f 52f
8:36 6 8 mph 1019.6mb 58f 52f
8:30 6 7 mph 1019.5mb 58f 51f
8:24 6 7 mph 1019.5mb 58f 51f
8:18 7
mph
1019.6mb 58f 51f
8:12 6 7 mph 1019.6mb 58f 51f
8:06 6 7 mph 1019.6mb 58f 51f
8:00 6 7 mph 1019.6mb 58f 51f
7:54 6 7 mph 1019.6mb 58f 50f
7:48 7 8 mph 1019.5mb 58f 50f
7:36 6 7 mph 1019.5mb 58f 51f
7:30 7
mph
1019.3mb 58f 51f
7:24 7
mph
1019.3mb 58f 50f
7:18 6 7 mph 1019.3mb 58f 51f
7:12 6 8 mph 1019.4mb 58f 51f
7:06 6 7 mph 1019.4mb 58f 51f
7:00 6
mph
1019.4mb 59f 51f
6:54 6
mph
1019.4mb 59f 51f
6:48 6
mph
1019.3mb 59f 51f
6:36 6 7 mph 1019.3mb 59f 51f
6:30 6 7 mph 1019.3mb 59f 52f
6:24 7
mph
1019.3mb 60f 52f
6:18 6 7 mph 1019.2mb 60f 52f
6:12 6
mph
1019.2mb 60f 52f
6:06 5 6 mph 1019.2mb 60f 52f
6:00 3 5 mph 1019.3mb 60f 52f
5:36 3 5 mph 1019.3mb 59f 53f
5:30 3 5 mph 1019.3mb 59f 53f
5:24 3 5 mph 1019.2mb 60f 53f
5:18 5 6 mph 1019.1mb 60f 53f
5:12 6 7 mph 1019.1mb 60f 53f
5:06 7
mph
1019.1mb 60f 53f
5:00 7 8 mph 1019.1mb 60f 53f
4:54 8
mph
1019.1mb 60f 53f
4:48 7
mph
1019.1mb 59f 53f
4:36 7 8 mph 1019.1mb 59f 53f
4:30 8
mph
1019.1mb 59f 53f
4:24 8
mph
1019.1mb 59f 53f
4:18 8
mph
1019.1mb 59f 54f
4:12 8
mph
1019.2mb 59f 55f
4:06 7
mph
1019.2mb 59f 55f
4:00 7 8 mph 1019.2mb 59f 55f
3:54 7 8 mph 1019.2mb 59f 55f
3:48 7 8 mph 1019.2mb 59f 55f
3:36 8
mph
1019.3mb 58f 55f
3:30 6 8 mph 1019.3mb 58f 55f
3:24 8 9 mph 1019.3mb 58f 54f
3:18 7 8 mph 1019.4mb 58f 54f
3:12 7 9 mph 1019.4mb 58f 54f
3:06 7 8 mph 1019.5mb 58f 54f
3:00 7 8 mph 1019.5mb 58f 54f
2:54 7 8 mph 1019.4mb 58f 54f
2:48 6 7 mph 1019.4mb 58f 54f
2:36 6 7 mph 1019.4mb 58f 54f
2:30 6 7 mph 1019.6mb 58f 54f
2:24 6 7 mph 1019.5mb 58f 54f
2:18 6 7 mph 1019.5mb 58f 54f
2:12 6
mph
1019.6mb 58f 54f
2:06 5 6 mph 1019.6mb 58f 54f
2:00 6
mph
1019.6mb 57f 54f
1:54 6
mph
1019.7mb 57f 54f
1:48 6 7 mph 1019.7mb 57f 54f
1:36 8 9 mph 1019.8mb 56f 54f
1:30 8 9 mph 1019.8mb 56f 54f
1:24 7
mph
1019.7mb 56f 54f
1:18 6 7 mph 1019.7mb 56f 54f
1:12 6
mph
1019.7mb 56f 54f
1:06 5 6 mph 1019.7mb 56f 54f
1:00 3 5 mph 1019.7mb 56f 55f
12:54 3
mph
1019.7mb 55f 55f
12:48 3
mph
1019.7mb 55f 55f
12:36 3
mph
1019.7mb 55f 55f
12:30 3 5 mph 1019.6mb 55f 55f
12:24 5 6 mph 1019.6mb 55f 55f
12:18 5 6 mph 1019.5mb 55f 55f
12:12 5 6 mph 1019.6mb 55f 55f
12:06 5 6 mph 1019.7mb 55f 55f
12:00 5 7 mph 1019.7mb 55f 55f
mar. 09/27 11:54 6 8 mph 1019.7mb 55f 55f
11:48 8 9 mph 1019.7mb 55f 55f
11:36 7 8 mph 1019.7mb 55f 55f
11:30 8 10 mph 1019.7mb 55f 55f
11:24 10 11 mph 1019.7mb 55f 55f
11:18 8 10 mph 1019.7mb 55f 55f
11:12 9 10 mph 1019.8mb 56f 56f
11:06 9 10 mph 1019.8mb 56f 56f
11:00 9 10 mph 1019.8mb 56f 56f
10:54 9 10 mph 1019.9mb 57f 56f
10:48 9 10 mph 1019.9mb 57f 56f
10:36 10 13 mph 1019.9mb 58f 56f
10:30 11 13 mph 1019.9mb 59f 56f
10:24 10 11 mph 1020mb 60f 56f
10:18 8 10 mph 1020mb 60f 56f
10:12 7 9 mph 1020.1mb 60f 56f
10:06 7 9 mph 1020.1mb 60f 56f
10:00 6 8 mph 1020.2mb 60f 56f
9:54 5 7 mph 1020.2mb 60f 56f
9:48 6 8 mph 1020.3mb 60f 56f
9:36 6 8 mph 1020.3mb 60f 56f
9:30 7 9 mph 1020.3mb 60f 56f
9:24 7 9 mph 1020.3mb 60f 56f
9:18 8 9 mph 1020.2mb 60f 56f
9:12 7 9 mph 1020.2mb 60f 55f
9:06 6 7 mph 1020.2mb 60f 55f
9:00 5 7 mph 1020.2mb 60f 55f
8:54 3 6 mph 1020.2mb 60f 55f
8:48 5 8 mph 1020.2mb 60f 55f
8:36 8 13 mph 1020.1mb 60f 55f
8:30 9 11 mph 1020.1mb 60f 55f
8:24 10 14 mph 1020.2mb 60f 56f
8:18 13 15 mph 1020.2mb 60f 56f
8:12 13 15 mph 1020.2mb 60f 56f
8:06 11 15 mph 1020.2mb 60f 56f
8:00 13 16 mph 1020.1mb 60f 56f
7:54 14 16 mph 1020.1mb 60f 56f
7:48 14 17 mph 1020.2mb 60f 56f
7:36 15 18 mph 1020.2mb 60f 56f
7:30 16 20 mph 1020.1mb 60f 56f
7:24 17 21 mph 1020.1mb 60f 56f
7:18 17 21 mph 1020.1mb 60f 56f
7:12 17 21 mph 1020.1mb 60f 56f
7:06 16 18 mph 1020.1mb 60f 56f
7:00 15 20 mph 1020.1mb 60f 56f
6:54 17 21 mph 1020.2mb 60f 56f
6:48 16 20 mph 1020.3mb 60f 56f
6:36 17 21 mph 1020.2mb 60f 56f
6:30 16 21 mph 1020.3mb 60f 57f
6:24 15 18 mph 1020.5mb 60f 57f
6:18 17 21 mph 1020.4mb 60f 56f
6:12 18 22 mph 1020.5mb 60f 56f
6:06 20 23 mph 1020.5mb 60f 56f
6:00 20 24 mph 1020.5mb 60f 56f
5:54 21 23 mph 1020.6mb 61f 55f
5:48 22 24 mph 1020.5mb 61f 55f
5:36 21 24 mph 1020.5mb 61f 55f
5:30 23 26 mph 1020.5mb 61f 54f
5:24 21 24 mph 1020.5mb 61f 55f
5:18 23 25 mph 1020.6mb 61f 54f
5:12 22 25 mph 1020.7mb 61f 55f
5:06 23 25 mph 1020.8mb 61f 55f
5:00 20 22 mph 1020.9mb 61f 55f
4:54 21 23 mph 1020.9mb 61f 55f
4:48 21 24 mph 1020.9mb 61f 56f
4:36 22 25 mph 1021.1mb 61f 56f
4:30 23 26 mph 1021.2mb 60f 55f
4:24 23 25 mph 1021.3mb 60f 55f
4:18 23 25 mph 1021.2mb 61f 56f
4:12 22 24 mph 1021.3mb 61f 56f
4:06 21 23 mph 1021.3mb 61f 56f
4:00 22 24 mph 1021.3mb 61f 56f
3:54 21 24 mph 1021.3mb 60f 56f
3:48 20 24 mph 1021.3mb 60f 57f
3:36 23 24 mph 1021.2mb 60f 56f
3:30 22 24 mph 1021.2mb 60f 56f
3:24 21 23 mph 1021.3mb 60f 57f
3:18 22 23 mph 1021.2mb 60f 57f
3:12 21 22 mph 1021.2mb 60f 57f
3:06 18 21 mph 1021.3mb 60f 57f
3:00 18 21 mph 1021.4mb 60f 57f
2:54 18 21 mph 1021.5mb 60f 58f
2:48 18 20 mph 1021.6mb 60f 58f
2:36 16 20 mph 1021.6mb 60f 58f
2:30 16 18 mph 1021.7mb 60f 58f
2:24 16 17 mph 1021.8mb 60f 58f
2:18 16 17 mph 1021.8mb 60f 58f
2:12 17 18 mph 1021.8mb 60f 58f
2:06 16 18 mph 1021.9mb 59f 58f
2:00 17 18 mph 1021.9mb 59f 58f
1:54 17 18 mph 1022mb 59f 58f
1:48 15 17 mph 1022mb 58f 58f
1:36 16 18 mph 1022.1mb 56f 58f
1:30 17 18 mph 1022.1mb 57f 58f
1:24 16 17 mph 1022.1mb 57f 58f
1:18 16 18 mph 1022.1mb 57f 58f
1:12 17 18 mph 1022.2mb 57f 58f
1:06 16 17 mph 1022.2mb 57f 58f
1:00 17 18 mph 1022.2mb 57f 58f
12:54 18 20 mph 1022.1mb 57f 58f
12:48 18
mph
1022.1mb 56f 58f
12:36 18 20 mph 1022.2mb 56f 58f
12:30 18 20 mph 1022.3mb 56f 58f
12:24 17 20 mph 1022.3mb 56f 58f
12:18 18 20 mph 1022.4mb 56f 58f
12:12 17 18 mph 1022.4mb 56f 57f
12:06 17 18 mph 1022.5mb 56f 57f
12:00 17 20 mph 1022.5mb 56f 57f
11:54 16 20 mph 1022.5mb 57f 58f
11:48 16 20 mph 1022.6mb 57f 58f
11:36 18 22 mph 1022.6mb 57f 57f
11:30 20 22 mph 1022.6mb 57f 57f
11:24 20 21 mph 1022.7mb 57f 57f
11:18 21 23 mph 1022.6mb 57f 57f
11:12 18 23 mph 1022.6mb 57f 57f
11:06 21 24 mph 1022.6mb 56f 56f
11:00 22 25 mph 1022.7mb 57f 56f
10:54 21 25 mph 1022.6mb 57f 56f
10:48 23 26 mph 1022.7mb 58f 56f
10:36 21 25 mph 1022.6mb 58f 56f
10:30 21 22 mph 1022.6mb 58f 56f
10:24 22 24 mph 1022.7mb 58f 57f
10:18 22 24 mph 1022.7mb 59f 56f
10:12 22 25 mph 1022.6mb 60f 57f
10:06 23 25 mph 1022.6mb 60f 57f
10:00 21 25 mph 1022.6mb 60f 57f
9:54 21 25 mph 1022.6mb 60f 57f
9:48 23 26 mph 1022.6mb 60f 57f
9:36 23 26 mph 1022.4mb 60f 57f
9:30 23 26 mph 1022.3mb 60f 57f
9:24 24 28 mph 1022.3mb 60f 57f
9:18 24 28 mph 1022.2mb 60f 57f
9:12 23 28 mph 1022.2mb 60f 57f
9:06 24 28 mph 1022.1mb 60f 57f
9:00 24 26 mph 1022.1mb 60f 57f
8:54 23 25 mph 1022.1mb 60f 57f
8:48 22 25 mph 1022.2mb 60f 57f
8:36 22 25 mph 1022.1mb 60f 57f
8:30 22 26 mph 1022.1mb 60f 57f
8:24 21 25 mph 1022.2mb 60f 57f
8:18 20 23 mph 1022.1mb 60f 57f
8:12 21 23 mph 1022mb 60f 56f
8:06 20 22 mph 1022.1mb 60f 56f
8:00 18 24 mph 1022mb 60f 56f
7:54 20 23 mph 1021.9mb 60f 56f
7:48 20 22 mph 1022mb 60f 56f
7:36 20 23 mph 1021.9mb 60f 56f
7:30 18 23 mph 1021.8mb 60f 56f
7:24 21 25 mph 1021.8mb 60f 56f
7:18 22 24 mph 1021.7mb 60f 56f
7:12 18 24 mph 1021.6mb 60f 56f
7:06 23 26 mph 1021.5mb 60f 56f
7:00 23 26 mph 1021.5mb 60f 56f
6:36 26 29 mph 1021.4mb 60f 56f
6:30 26 30 mph 1021.4mb 60f 56f
6:24 25 30 mph 1021.4mb 60f 56f
6:18 22 25 mph 1021.5mb 60f 56f
6:12 24 26 mph 1021.4mb 60f 56f
6:06 23 25 mph 1021.5mb 60f 56f
6:00 24 28 mph 1021.5mb 60f 56f
5:54 24 28 mph 1021.4mb 61f 56f
5:48 22 26 mph 1021.5mb 61f 57f
5:36 23 29 mph 1021.3mb 61f 57f
5:30 25 29 mph 1021.3mb 61f 57f
5:24 22 26 mph 1021.3mb 61f 57f
5:18 25 29 mph 1021.4mb 61f 57f
5:12 24 29 mph 1021.3mb 61f 56f
5:06 22 26 mph 1021.3mb 61f 56f
5:00 24 28 mph 1021.2mb 61f 56f
4:54 23 29 mph 1021.2mb 61f 56f
4:48 23 26 mph 1021.2mb 61f 56f
4:36 22 28 mph 1021.2mb 61f 56f
4:30 22 24 mph 1021.1mb 61f 56f
4:24 23 26 mph 1021.1mb 61f 56f
4:18 22 25 mph 1021.2mb 61f 56f
4:12 21 24 mph 1021.2mb 61f 56f
4:06 22 24 mph 1021.2mb 61f 56f
4:00 20 23 mph 1021.2mb 61f 56f
3:54 21 23 mph 1021.1mb 61f 56f
3:48 22 23 mph 1021.1mb 60f 56f
3:36 20 22 mph 1021mb 60f 56f
3:30 22 25 mph 1021mb 60f 56f
3:24 22 24 mph 1021mb 60f 56f
3:18 23 25 mph 1020.9mb 60f 56f
3:12 23 25 mph 1020.8mb 60f 57f
3:06 22 25 mph 1020.8mb 60f 57f
3:00 22 24 mph 1020.7mb 60f 58f
2:36 14 16 mph 1020.5mb 60f 59f
2:30 11 14 mph 1020.5mb 60f 59f
2:24 10 13 mph 1020.5mb 60f 59f
2:18 10 14 mph 1020.5mb 60f 59f
2:12 9 11 mph 1020.5mb 60f 59f
2:06 8 10 mph 1020.4mb 60f 59f
2:00 7 8 mph 1020.3mb 60f 59f
1:54 6 8 mph 1020.3mb 60f 59f
1:48 7 8 mph 1020.3mb 60f 59f
1:36 9 13 mph 1020.3mb 60f 59f
1:30 13 14 mph 1020.3mb 60f 59f
1:24 11 14 mph 1020.3mb 60f 59f
1:18 11 14 mph 1020.3mb 60f 59f
1:12 10 11 mph 1020.3mb 60f 59f
1:06 10 13 mph 1020.3mb 60f 59f
1:00 11 14 mph 1020.2mb 60f 59f
12:54 11 14 mph 1020.2mb 60f 59f
12:48 11 13 mph 1020.1mb 59f 59f
12:36 9 11 mph 1020.1mb 59f 59f
12:30 7 9 mph 1020.1mb 59f 59f
12:24 8 10 mph 1020.1mb 59f 59f
12:18 9 10 mph 1020mb 58f 59f
12:12 10 13 mph 1020.1mb 58f 59f
12:06 11 13 mph 1020mb 58f 59f
12:00 10 11 mph 1020mb 58f 59f
lun. 09/26 11:54 9 10 mph 1020mb 58f 59f
11:48 10 13 mph 1019.9mb 58f 59f
11:36 9 11 mph 1019.8mb 58f 59f
11:30 9 11 mph 1019.9mb 58f 59f
11:24 10 11 mph 1019.8mb 58f 59f
11:18 10 13 mph 1019.9mb 58f 59f
11:12 10 13 mph 1019.8mb 58f 59f
11:06 10 11 mph 1019.8mb 58f 59f
11:00 10 13 mph 1019.8mb 58f 59f
10:54 10 14 mph 1019.8mb 59f 59f
10:48 11 14 mph 1019.8mb 59f 59f
10:36 14 16 mph 1019.6mb 59f 59f
10:30 15 17 mph 1019.6mb 59f 59f
10:24 14 15 mph 1019.5mb 59f 59f
10:18 13 14 mph 1019.5mb 60f 59f
10:12 13 14 mph 1019.5mb 60f 59f
10:06 13 15 mph 1019.6mb 60f 59f
10:00 10 11 mph 1019.5mb 60f 59f
9:54 8 9 mph 1019.4mb 60f 59f
9:48 6 7 mph 1019.3mb 60f 59f
9:36 8 9 mph 1019.2mb 60f 59f
9:30 9 11 mph 1019.3mb 60f 59f
9:24 10 13 mph 1019.2mb 60f 59f
9:18 11 13 mph 1019.2mb 60f 59f
9:12 11 15 mph 1019.2mb 60f 59f
9:06 13 15 mph 1019.1mb 60f 59f
9:00 14 15 mph 1019.1mb 60f 59f
8:54 13 14 mph 1019.1mb 60f 59f
8:48 13 14 mph 1019mb 61f 59f
8:36 11 13 mph 1019mb 60f 59f
8:30 10 13 mph 1019mb 61f 59f
8:24 10 13 mph 1018.9mb 61f 59f
8:18 11 15 mph 1018.9mb 61f 59f
8:12 15 18 mph 1018.8mb 61f 59f
8:06 14 16 mph 1018.8mb 61f 59f
8:00 15 17 mph 1018.8mb 61f 59f
7:54 11 15 mph 1018.7mb 60f 59f
7:48 13 15 mph 1018.7mb 60f 59f
7:36 13 14 mph 1018.5mb 60f 59f
7:30 14 16 mph 1018.4mb 60f 59f
7:24 14 16 mph 1018.4mb 60f 59f
7:18 14 16 mph 1018.3mb 60f 59f
7:12 15 17 mph 1018.3mb 60f 59f
7:06 14 17 mph 1018.3mb 60f 59f
7:00 14 17 mph 1018.3mb 60f 59f
6:54 15 18 mph 1018.3mb 60f 59f
6:48 15 18 mph 1018.2mb 60f 59f